This is the latest recevied weather packets stored in our database for station/object SQ5LTL-2. If no packets are shown the sender has not sent any weather packets the latest 1 day(s).
| Time | Temp. | Humidity | Pressure | Rain* | Wind** | Luminosity | Snow |
|---|---|---|---|---|---|---|---|
| 1777967727 | 22.78° C | 35% | 1011.8 hPa | 0 mm | 1.34 m/s, 211° | 339 W/m² | - |
| 1777967424 | 22.78° C | 34% | 1012 hPa | 0 mm | 1.79 m/s, 201° | 284 W/m² | - |
| 1777967123 | 22.78° C | 35% | 1012 hPa | 0 mm | 2.24 m/s, 191° | 315 W/m² | - |
| 1777966822 | 22.78° C | 35% | 1011.9 hPa | 0 mm | 1.79 m/s, 190° | 392 W/m² | - |
| 1777966520 | 22.22° C | 35% | 1011.9 hPa | 0 mm | 2.24 m/s, 191° | 381 W/m² | - |
| 1777966218 | 22.22° C | 38% | 1012 hPa | 0 mm | 1.79 m/s, 183° | 324 W/m² | - |
| 1777965917 | 21.67° C | 41% | 1011.9 hPa | 0 mm | 1.34 m/s, 170° | 303 W/m² | - |
| 1777965616 | 21.67° C | 42% | 1011.9 hPa | 0 mm | 1.34 m/s, 174° | 281 W/m² | - |
| 1777965334 | 21.11° C | 44% | 1012 hPa | 0 mm | 1.34 m/s, 181° | 306 W/m² | - |
| 1777965033 | 20.56° C | 44% | 1012.1 hPa | 0 mm | 1.34 m/s, 201° | 325 W/m² | - |
| 1777964731 | 20.56° C | 44% | 1012.1 hPa | 0 mm | 1.79 m/s, 203° | 324 W/m² | - |
| 1777964431 | 20° C | 46% | 1012.1 hPa | 0 mm | 1.34 m/s, 176° | 316 W/m² | - |
| 1777964128 | 20° C | 46% | 1012.2 hPa | 0 mm | 1.34 m/s, 191° | 308 W/m² | - |
| 1777963827 | 19.44° C | 47% | 1012.2 hPa | 0 mm | 1.34 m/s, 186° | 295 W/m² | - |
| 1777963526 | 19.44° C | 47% | 1012.3 hPa | 0 mm | 1.34 m/s, 192° | 283 W/m² | - |
| 1777963224 | 18.89° C | 49% | 1012.1 hPa | 0 mm | 0.89 m/s, 187° | 270 W/m² | - |
| 1777962922 | 18.89° C | 49% | 1012.3 hPa | 0 mm | 1.79 m/s, 188° | 253 W/m² | - |
| 1777962621 | 18.89° C | 49% | 1012.3 hPa | 0 mm | 1.34 m/s, 191° | 225 W/m² | - |
| 1777962319 | 18.33° C | 50% | 1012.3 hPa | 0 mm | 1.34 m/s, 184° | 234 W/m² | - |
| 1777962018 | 18.33° C | 50% | 1012.3 hPa | 0 mm | 1.34 m/s, 175° | 228 W/m² | - |
| 1777961717 | 18.33° C | 51% | 1012.3 hPa | 0 mm | 1.34 m/s, 176° | 218 W/m² | - |
| 1777961435 | 18.33° C | 51% | 1012.3 hPa | 0 mm | 1.34 m/s, 200° | 206 W/m² | - |
| 1777961134 | 17.78° C | 52% | 1012.3 hPa | 0 mm | 1.34 m/s, 200° | 195 W/m² | - |
| 1777960833 | 17.78° C | 53% | 1012.4 hPa | 0 mm | 1.34 m/s, 200° | 186 W/m² | - |
| 1777960531 | 17.22° C | 53% | 1012.3 hPa | 0 mm | 1.34 m/s, 202° | 176 W/m² | - |
* Rain latest hour (hover to see other rain measurements)
** Current wind speed in m/s (hover to see current wind gust speed)